Terminal Aerodrome Forecast
Issued by NWS Sterling, VA

Current Version | Previous Version | Text Only | Print | Product List | Glossary On
Versions: 1 2 3 4 5 6 7 8 9 10 11 12 13 14 15 16 17 18 19 20 21 22
000
FTUS41 KLWX 292300
TAFIAD
TAF
KIAD 292331Z 3000/3106 33012G18KT P6SM FEW060 SCT250
     FM300100 34005KT P6SM FEW090 SCT250
     FM301500 27004KT P6SM BKN050 BKN250
     FM310300 00000KT P6SM SCT050=

USA.gov is the U.S. government's official web portal to all federal, state and local government web resources and services.